Terminal Aerodrome Forecast
Issued by NWS

Home | Current Version | Previous Version | Text Only | Print | Product List | Glossary On
Versions: 1 2 3 4 5 6 7 8 9 10 11 12 13 14
709
FTUS46 KSEW 220520
TAFHQM
TAF
KHQM 220520Z 2206/2306 25006KT P6SM SCT035 OVC050
     FM221000 24006KT 6SM -SHRA BR SCT020 OVC035
     FM222000 23008KT P6SM SCT020 SCT250
     FM230000 33005KT P6SM SCT250=

USA.gov is the U.S. government's official web portal to all federal, state and local government web resources and services.